createdAt,value
2023-01-01T00:00:39.727Z,22.17
2023-01-01T00:03:06.636Z,25.33
2023-01-01T00:05:33.683Z,16.60
2023-01-01T00:08:04.643Z,17.13
2023-01-01T00:10:32.722Z,16.10
2023-01-01T00:13:00.447Z,16.57
2023-01-01T00:15:28.988Z,17.33
2023-01-01T00:17:56.103Z,10.33
2023-01-01T00:20:22.867Z,15.00
2023-01-01T00:22:57.111Z,8.17
2023-01-01T00:25:24.893Z,13.50
2023-01-01T00:27:51.741Z,8.87
2023-01-01T00:30:18.812Z,8.90
2023-01-01T00:32:54.738Z,9.10
2023-01-01T00:35:26.492Z,8.20
2023-01-01T00:37:54.538Z,11.60
2023-01-01T00:40:21.576Z,7.57
2023-01-01T00:42:48.339Z,8.63
2023-01-01T00:45:20.919Z,8.43
2023-01-01T00:47:48.598Z,7.13
2023-01-01T00:50:15.630Z,5.80
2023-01-01T00:52:42.406Z,4.40
2023-01-01T00:55:09.820Z,4.73
2023-01-01T00:57:36.608Z,5.77
2023-01-01T01:00:04.535Z,11.07
2023-01-01T01:02:31.544Z,5.00
2023-01-01T01:04:58.415Z,2.90
2023-01-01T01:07:25.165Z,2.73
2023-01-01T01:09:51.935Z,6.93
2023-01-01T01:12:19.111Z,3.50
2023-01-01T01:14:46.817Z,4.70
2023-01-01T01:17:13.632Z,3.83
2023-01-01T01:19:40.455Z,4.40
2023-01-01T01:22:07.224Z,6.17
2023-01-01T01:24:34.031Z,4.93
2023-01-01T01:27:00.823Z,2.03
2023-01-01T01:29:27.781Z,2.57
2023-01-01T01:31:54.484Z,2.87
2023-01-01T01:34:27.259Z,3.03
2023-01-01T01:36:55.087Z,4.53
2023-01-01T01:39:22.498Z,2.30
2023-01-01T01:41:49.343Z,3.40
2023-01-01T01:44:47.154Z,2.60
2023-01-01T01:47:34.463Z,3.33
2023-01-01T01:50:07.581Z,2.23
2023-01-01T01:52:37.961Z,1.73
2023-01-01T01:55:07.384Z,3.03
2023-01-01T01:57:34.632Z,1.70
2023-01-01T02:00:08.707Z,4.10
2023-01-01T02:02:58.170Z,1.93
2023-01-01T02:05:26.120Z,1.90
2023-01-01T02:07:53.913Z,3.73
2023-01-01T02:10:20.989Z,2.30
2023-01-01T02:12:47.943Z,3.43
2023-01-01T02:15:14.993Z,2.70
2023-01-01T02:17:54.255Z,2.10
2023-01-01T02:20:49.144Z,2.33
2023-01-01T02:23:52.257Z,8.13
2023-01-01T02:26:38.820Z,1.87
2023-01-01T02:29:26.285Z,4.23
2023-01-01T02:32:02.289Z,3.30
2023-01-01T02:34:58.014Z,7.03
2023-01-01T02:37:29.051Z,2.93
2023-01-01T02:39:59.295Z,1.40
2023-01-01T02:42:29.008Z,2.20
2023-01-01T02:44:58.262Z,1.90
2023-01-01T02:47:25.025Z,1.60
2023-01-01T02:50:12.419Z,3.57
2023-01-01T02:52:56.957Z,2.70
2023-01-01T02:55:23.694Z,2.00
2023-01-01T02:58:19.882Z,1.67
2023-01-01T03:00:48.819Z,2.10
2023-01-01T03:03:31.022Z,3.13
2023-01-01T03:06:23.403Z,2.47
2023-01-01T03:09:12.766Z,1.70
2023-01-01T03:11:50.201Z,2.17
2023-01-01T03:14:25.407Z,2.77
2023-01-01T03:16:59.002Z,2.50
2023-01-01T03:19:30.054Z,2.57
2023-01-01T03:22:03.420Z,1.90
2023-01-01T03:24:39.562Z,2.77
2023-01-01T03:27:17.684Z,2.30
2023-01-01T03:29:46.536Z,2.77
2023-01-01T03:32:21.297Z,2.33
2023-01-01T03:34:53.772Z,3.47
2023-01-01T03:37:26.160Z,4.77
2023-01-01T03:39:57.423Z,6.73
2023-01-01T03:42:35.167Z,2.23
2023-01-01T03:45:19.667Z,2.33
2023-01-01T03:47:47.093Z,4.83
2023-01-01T03:50:15.142Z,3.20
2023-01-01T03:52:50.794Z,3.00
2023-01-01T03:55:28.846Z,3.57
2023-01-01T03:58:11.992Z,1.70
2023-01-01T04:00:46.884Z,2.23
2023-01-01T04:03:27.295Z,3.73
2023-01-01T04:05:54.516Z,2.33
2023-01-01T04:08:22.085Z,3.00
2023-01-01T04:10:54.909Z,4.47
2023-01-01T04:13:21.697Z,3.30
2023-01-01T04:15:48.662Z,2.33
2023-01-01T04:18:15.442Z,1.50
2023-01-01T04:20:42.625Z,4.13
2023-01-01T04:23:09.345Z,2.80
2023-01-01T04:25:36.256Z,2.77
2023-01-01T04:28:03.603Z,7.80
2023-01-01T04:30:31.071Z,2.33
2023-01-01T04:32:57.741Z,2.20
2023-01-01T04:35:24.604Z,1.70
2023-01-01T04:37:51.438Z,8.13
2023-01-01T04:40:18.403Z,4.80
2023-01-01T04:42:45.252Z,3.10
2023-01-01T04:45:15.001Z,6.80
2023-01-01T04:47:42.526Z,4.67
2023-01-01T04:50:09.967Z,10.23
2023-01-01T04:52:36.788Z,3.30
2023-01-01T04:55:03.830Z,1.93
2023-01-01T04:57:31.640Z,3.00
2023-01-01T04:59:58.690Z,1.90
2023-01-01T05:02:26.187Z,2.10
2023-01-01T05:04:52.984Z,3.20
2023-01-01T05:07:19.890Z,3.40
2023-01-01T05:09:46.577Z,3.80
2023-01-01T05:12:13.341Z,3.20
2023-01-01T05:14:40.118Z,2.67
2023-01-01T05:17:07.055Z,4.50
2023-01-01T05:19:33.926Z,2.47
2023-01-01T05:22:05.344Z,3.37
2023-01-01T05:24:36.445Z,2.40
2023-01-01T05:27:03.430Z,1.80
2023-01-01T05:29:30.189Z,3.63
2023-01-01T05:31:56.999Z,2.60
2023-01-01T05:34:25.448Z,4.00
2023-01-01T05:36:52.312Z,2.90
2023-01-01T05:39:19.151Z,2.53
2023-01-01T05:41:45.833Z,2.40
2023-01-01T05:44:12.672Z,5.30
2023-01-01T05:46:39.852Z,3.70
2023-01-01T05:49:06.607Z,2.87
2023-01-01T05:53:59.558Z,2.63
2023-01-01T05:56:27.357Z,5.60
2023-01-01T05:58:55.038Z,2.23
2023-01-01T06:01:27.958Z,2.70
2023-01-01T06:03:56.412Z,3.30
2023-01-01T06:06:29.142Z,3.77
2023-01-01T06:09:01.101Z,3.00
2023-01-01T06:11:29.222Z,2.37
2023-01-01T06:13:59.148Z,2.20
2023-01-01T06:16:27.643Z,4.67
2023-01-01T06:18:54.683Z,3.97
2023-01-01T06:21:24.471Z,3.83
2023-01-01T06:23:51.420Z,2.60
2023-01-01T06:26:23.856Z,7.70
2023-01-01T06:28:51.449Z,3.13
2023-01-01T06:31:21.341Z,9.63
2023-01-01T06:33:49.112Z,4.07
2023-01-01T06:36:17.638Z,3.77
2023-01-01T06:38:47.451Z,4.70
2023-01-01T06:41:16.765Z,2.93
2023-01-01T06:43:43.936Z,3.63
2023-01-01T06:46:20.643Z,6.53
2023-01-01T06:48:49.568Z,2.10
2023-01-01T06:51:19.503Z,4.17
2023-01-01T06:53:46.869Z,5.93
2023-01-01T06:56:14.026Z,5.83
2023-01-01T06:58:41.132Z,3.20
2023-01-01T07:01:18.341Z,2.50
2023-01-01T07:03:50.455Z,2.70
2023-01-01T07:06:17.391Z,3.20
2023-01-01T07:08:44.217Z,2.93
2023-01-01T07:11:10.942Z,8.20
2023-01-01T07:13:37.775Z,4.50
2023-01-01T07:16:12.150Z,5.70
2023-01-01T07:18:39.701Z,2.90
2023-01-01T07:21:28.282Z,2.50
2023-01-01T07:23:56.525Z,4.37
2023-01-01T07:26:27.589Z,3.70
2023-01-01T07:28:54.443Z,4.47
2023-01-01T07:31:21.396Z,6.63
2023-01-01T07:33:48.154Z,2.80
2023-01-01T07:36:14.940Z,7.40
2023-01-01T07:38:41.665Z,5.00
2023-01-01T07:41:08.565Z,3.70
2023-01-01T07:43:35.469Z,3.77
2023-01-01T07:46:02.875Z,2.80
2023-01-01T07:48:33.408Z,5.40
2023-01-01T07:51:04.749Z,9.47
2023-01-01T07:53:31.495Z,6.70
2023-01-01T07:55:58.248Z,4.33
2023-01-01T07:58:25.023Z,5.10
2023-01-01T08:00:51.741Z,3.33
2023-01-01T08:03:18.529Z,5.23
2023-01-01T08:05:45.344Z,2.83
2023-01-01T08:08:12.354Z,2.50
2023-01-01T08:10:39.138Z,5.60
2023-01-01T08:13:07.663Z,4.53
2023-01-01T08:15:35.445Z,5.87
2023-01-01T08:18:04.775Z,3.80
2023-01-01T08:20:32.629Z,2.20
2023-01-01T08:23:06.335Z,2.20
2023-01-01T08:25:33.859Z,6.03
2023-01-01T08:28:00.602Z,5.50
2023-01-01T08:30:27.691Z,4.30
2023-01-01T08:32:54.623Z,3.53
2023-01-01T08:35:21.391Z,2.50
2023-01-01T08:37:48.140Z,6.90
2023-01-01T08:40:14.903Z,4.67
2023-01-01T08:42:41.639Z,3.90
2023-01-01T08:45:09.088Z,2.23
2023-01-01T08:47:35.926Z,9.33
2023-01-01T08:50:02.888Z,5.03
2023-01-01T08:52:29.579Z,5.13
2023-01-01T08:54:56.337Z,5.37
2023-01-01T08:57:23.194Z,5.30
2023-01-01T08:59:49.880Z,3.80
2023-01-01T09:02:16.784Z,3.40
2023-01-01T09:04:43.705Z,2.50
2023-01-01T09:07:10.485Z,1.97
2023-01-01T09:09:37.273Z,2.70
2023-01-01T09:12:06.147Z,2.30
2023-01-01T09:14:34.313Z,4.60
2023-01-01T09:17:01.759Z,2.80
2023-01-01T09:19:28.874Z,3.57
2023-01-01T09:21:55.959Z,3.40
2023-01-01T09:24:23.176Z,3.27
2023-01-01T09:26:49.916Z,2.20
2023-01-01T09:29:18.706Z,4.97
2023-01-01T09:31:46.266Z,3.00
2023-01-01T09:34:13.089Z,5.13
2023-01-01T09:36:39.811Z,11.60
2023-01-01T09:39:06.838Z,4.17
2023-01-01T09:41:46.462Z,6.33
2023-01-01T09:44:22.083Z,4.80
2023-01-01T09:46:49.574Z,3.90
2023-01-01T09:49:41.977Z,4.73
2023-01-01T09:52:14.566Z,3.70
2023-01-01T09:54:51.810Z,3.33
2023-01-01T09:57:20.417Z,5.27
2023-01-01T09:59:47.486Z,5.77
2023-01-01T10:02:40.303Z,1.83
2023-01-01T10:05:49.780Z,2.80
2023-01-01T10:08:41.120Z,6.90
2023-01-01T10:11:31.736Z,2.47
2023-01-01T10:14:00.727Z,4.37
2023-01-01T10:16:48.781Z,2.80
2023-01-01T10:19:37.811Z,3.67
2023-01-01T10:22:11.424Z,3.80
2023-01-01T10:24:52.585Z,4.70
2023-01-01T10:27:28.345Z,4.50
2023-01-01T10:30:03.272Z,3.40
2023-01-01T10:32:35.609Z,3.10
2023-01-01T10:35:14.811Z,3.63
2023-01-01T10:37:42.351Z,4.53
2023-01-01T10:40:24.261Z,3.93
2023-01-01T10:42:59.195Z,8.53
2023-01-01T10:45:30.852Z,4.17
2023-01-01T10:48:20.783Z,7.23
2023-01-01T10:50:57.577Z,4.10
2023-01-01T10:53:34.936Z,4.60
2023-01-01T10:56:07.966Z,3.17
2023-01-01T10:58:36.832Z,2.93
2023-01-01T11:01:05.752Z,3.20
2023-01-01T11:03:33.231Z,4.40
2023-01-01T11:06:24.744Z,5.07
2023-01-01T11:08:57.413Z,2.80
2023-01-01T11:11:28.353Z,3.87
2023-01-01T11:13:59.686Z,4.50
2023-01-01T11:16:28.354Z,3.27
2023-01-01T11:19:06.952Z,6.33
2023-01-01T11:21:34.985Z,3.63
2023-01-01T11:24:21.616Z,5.30
2023-01-01T11:26:54.368Z,4.63
2023-01-01T11:29:30.623Z,3.00
2023-01-01T11:32:00.606Z,5.73
2023-01-01T11:34:36.977Z,6.40
2023-01-01T11:37:13.931Z,3.00
2023-01-01T11:39:46.270Z,2.63
2023-01-01T11:42:26.317Z,4.90
2023-01-01T11:44:57.040Z,4.20
2023-01-01T11:47:40.761Z,2.63
2023-01-01T11:50:16.783Z,4.60
2023-01-01T11:52:51.691Z,11.10
2023-01-01T11:55:43.251Z,4.30
2023-01-01T11:58:47.406Z,3.97
2023-01-01T12:01:40.205Z,3.47
2023-01-01T12:04:37.588Z,3.80
2023-01-01T12:07:21.605Z,3.37
2023-01-01T12:10:03.614Z,4.57
2023-01-01T12:12:49.010Z,3.70
2023-01-01T12:15:31.742Z,2.33
2023-01-01T12:18:26.416Z,2.87
2023-01-01T12:21:16.196Z,5.10
2023-01-01T12:23:43.106Z,4.97
2023-01-01T12:26:18.222Z,4.07
2023-01-01T12:29:14.319Z,4.30
2023-01-01T12:31:54.863Z,3.17
2023-01-01T12:34:38.455Z,4.43
2023-01-01T12:37:43.510Z,4.50
2023-01-01T12:40:34.426Z,2.10
2023-01-01T12:43:25.250Z,2.67
2023-01-01T12:46:18.499Z,4.50
2023-01-01T12:48:57.188Z,2.23
2023-01-01T12:52:08.775Z,3.50
2023-01-01T12:55:23.402Z,5.40
2023-01-01T12:58:15.581Z,3.93
2023-01-01T13:00:54.640Z,3.60
2023-01-01T13:03:49.841Z,4.10
2023-01-01T13:06:24.920Z,2.10
2023-01-01T13:09:02.437Z,2.83
2023-01-01T13:11:29.391Z,4.43
2023-01-01T13:13:56.176Z,4.00
2023-01-01T13:16:41.641Z,3.90
2023-01-01T13:19:31.414Z,4.83
2023-01-01T13:21:58.618Z,3.67
2023-01-01T13:24:27.075Z,3.97
2023-01-01T13:26:54.579Z,4.00
2023-01-01T13:29:21.212Z,4.30
2023-01-01T13:31:47.933Z,4.83
2023-01-01T13:34:35.467Z,6.23
2023-01-01T13:37:11.336Z,2.20
2023-01-01T13:39:56.548Z,4.80
2023-01-01T13:42:52.208Z,2.57
2023-01-01T13:46:09.971Z,10.30
2023-01-01T13:48:32.563Z,4.23
2023-01-01T13:51:40.072Z,3.30
2023-01-01T13:54:16.252Z,3.00
2023-01-01T13:57:29.235Z,3.20
2023-01-01T14:00:14.155Z,3.13
2023-01-01T14:02:46.097Z,6.73
2023-01-01T14:05:33.531Z,4.00
2023-01-01T14:08:00.701Z,3.30
2023-01-01T14:10:30.446Z,4.70
2023-01-01T14:13:06.385Z,6.23
2023-01-01T14:15:39.627Z,2.23
2023-01-01T14:18:15.628Z,1.90
2023-01-01T14:20:45.642Z,4.10
2023-01-01T14:23:16.855Z,3.27
2023-01-01T14:25:44.922Z,8.37
2023-01-01T14:28:26.953Z,8.17
2023-01-01T14:30:56.292Z,2.43
2023-01-01T14:33:26.640Z,2.73
2023-01-01T14:36:01.778Z,2.27
2023-01-01T14:38:31.821Z,3.30
2023-01-01T14:41:30.794Z,2.60
2023-01-01T14:44:13.296Z,3.80
2023-01-01T14:46:44.990Z,3.20
2023-01-01T14:49:42.401Z,3.47
2023-01-01T14:52:21.356Z,4.17
2023-01-01T14:54:48.513Z,1.53
2023-01-01T14:57:20.499Z,2.27
2023-01-01T14:59:49.120Z,2.83
2023-01-01T15:02:37.445Z,6.27
2023-01-01T15:05:22.889Z,3.40
2023-01-01T15:08:00.492Z,2.30
2023-01-01T15:10:29.758Z,2.70
2023-01-01T15:12:59.967Z,3.20
2023-01-01T15:15:44.528Z,2.67
2023-01-01T15:18:42.865Z,2.47
2023-01-01T15:21:16.970Z,2.63
2023-01-01T15:24:09.408Z,4.50
2023-01-01T15:26:49.060Z,4.63
2023-01-01T15:29:23.494Z,2.57
2023-01-01T15:31:55.453Z,3.90
2023-01-01T15:34:30.518Z,2.47
2023-01-01T15:37:09.554Z,4.17
2023-01-01T15:39:46.275Z,2.97
2023-01-01T15:42:37.267Z,3.80
2023-01-01T15:45:22.436Z,3.63
2023-01-01T15:47:50.883Z,2.57
2023-01-01T15:50:23.708Z,3.77
2023-01-01T15:53:09.640Z,1.57
2023-01-01T15:55:43.116Z,2.77
2023-01-01T15:58:26.214Z,2.30
2023-01-01T16:00:59.014Z,3.93
2023-01-01T16:03:28.914Z,4.20
2023-01-01T16:05:56.475Z,4.23
2023-01-01T16:08:23.529Z,3.00
2023-01-01T16:10:51.293Z,3.40
2023-01-01T16:13:19.001Z,2.30
2023-01-01T16:15:57.704Z,4.27
2023-01-01T16:18:38.508Z,1.83
2023-01-01T16:21:06.011Z,6.60
2023-01-01T16:23:32.757Z,3.87
2023-01-01T16:25:59.536Z,6.10
2023-01-01T16:28:26.259Z,4.73
2023-01-01T16:30:53.111Z,3.00
2023-01-01T16:33:22.698Z,7.30
2023-01-01T16:35:49.751Z,4.80
2023-01-01T16:38:16.563Z,4.53
2023-01-01T16:40:43.390Z,5.73
2023-01-01T16:43:17.144Z,3.10
2023-01-01T16:45:45.142Z,5.10
2023-01-01T16:48:11.954Z,8.30
2023-01-01T16:50:38.826Z,8.77
2023-01-01T16:53:05.536Z,4.50
2023-01-01T16:55:32.224Z,5.77
2023-01-01T16:58:37.978Z,5.53
2023-01-01T17:00:46.896Z,7.23
2023-01-01T17:03:14.449Z,4.70
2023-01-01T17:05:44.408Z,4.40
2023-01-01T17:08:11.614Z,5.97
2023-01-01T17:10:38.378Z,9.00
2023-01-01T17:13:05.198Z,4.50
2023-01-01T17:15:32.410Z,6.00
2023-01-01T17:17:59.281Z,14.27
2023-01-01T17:20:26.986Z,11.63
2023-01-01T17:22:53.888Z,8.53
2023-01-01T17:25:20.723Z,12.53
2023-01-01T17:27:47.542Z,18.30
2023-01-01T17:30:14.509Z,23.10
2023-01-01T17:32:41.370Z,10.00
2023-01-01T17:35:08.469Z,5.93
2023-01-01T17:37:35.414Z,7.23
2023-01-01T17:40:02.259Z,9.40
2023-01-01T17:42:29.468Z,13.50
2023-01-01T17:44:56.177Z,6.17
2023-01-01T17:47:25.502Z,10.33
2023-01-01T17:49:55.919Z,10.40
2023-01-01T17:52:22.661Z,5.60
2023-01-01T17:54:49.377Z,5.60
2023-01-01T17:57:17.064Z,5.30
2023-01-01T17:59:44.306Z,7.00
2023-01-01T18:02:15.256Z,5.37
2023-01-01T18:04:42.291Z,8.33
2023-01-01T18:07:09.039Z,9.27
2023-01-01T18:09:38.096Z,6.10
2023-01-01T18:12:05.956Z,5.97
2023-01-01T18:14:32.832Z,7.17
2023-01-01T18:16:59.592Z,9.90
2023-01-01T18:19:27.704Z,8.27
2023-01-01T18:21:54.587Z,12.33
2023-01-01T18:24:21.420Z,5.07
2023-01-01T18:26:48.219Z,7.47
2023-01-01T18:29:15.011Z,8.43
2023-01-01T18:31:41.886Z,5.40
2023-01-01T18:34:10.292Z,6.10
2023-01-01T18:36:37.134Z,8.07
2023-01-01T18:39:15.409Z,6.93
2023-01-01T18:41:42.078Z,4.50
2023-01-01T18:44:21.429Z,9.70
2023-01-01T18:46:59.100Z,5.63
2023-01-01T18:49:26.255Z,6.87
2023-01-01T18:52:05.980Z,12.80
2023-01-01T18:54:33.847Z,7.00
2023-01-01T18:57:23.679Z,9.33
2023-01-01T18:59:55.768Z,6.57
2023-01-01T19:02:37.642Z,6.97
2023-01-01T19:05:15.197Z,8.23
2023-01-01T19:07:42.064Z,5.57
2023-01-01T19:10:13.283Z,9.17
2023-01-01T19:12:40.341Z,8.63
2023-01-01T19:15:20.755Z,5.10
2023-01-01T19:17:47.545Z,7.27
2023-01-01T19:20:17.878Z,6.97
2023-01-01T19:22:45.761Z,8.90
2023-01-01T19:25:45.537Z,9.93
2023-01-01T19:28:18.355Z,5.97
2023-01-01T19:30:46.560Z,6.50
2023-01-01T19:33:14.225Z,11.70
2023-01-01T19:35:41.527Z,8.77
2023-01-01T19:38:08.206Z,12.33
2023-01-01T19:40:34.934Z,7.60
2023-01-01T19:43:03.588Z,9.23
2023-01-01T19:45:30.396Z,7.10
2023-01-01T19:47:57.097Z,9.97
2023-01-01T19:50:24.061Z,10.30
2023-01-01T19:52:50.824Z,10.60
2023-01-01T19:55:17.629Z,10.73
2023-01-01T19:57:44.333Z,7.47
2023-01-01T20:00:11.429Z,13.77
2023-01-01T20:02:47.629Z,8.30
2023-01-01T20:05:15.384Z,6.07
2023-01-01T20:07:42.263Z,6.23
2023-01-01T20:10:09.477Z,6.10
2023-01-01T20:12:36.307Z,11.53
2023-01-01T20:15:03.353Z,9.33
2023-01-01T20:17:30.750Z,9.67
2023-01-01T20:19:58.420Z,11.20
2023-01-01T20:22:25.243Z,8.70
2023-01-01T20:24:52.069Z,10.33
2023-01-01T20:27:23.152Z,8.77
2023-01-01T20:29:50.680Z,8.80
2023-01-01T20:32:17.608Z,9.67
2023-01-01T20:34:44.697Z,7.10
2023-01-01T20:37:29.930Z,13.90
2023-01-01T20:39:56.767Z,7.03
2023-01-01T20:42:23.672Z,5.07
2023-01-01T20:44:50.372Z,11.07
2023-01-01T20:47:17.086Z,7.93
2023-01-01T20:49:43.914Z,10.23
2023-01-01T20:52:11.747Z,8.30
2023-01-01T20:54:38.435Z,11.53
2023-01-01T20:57:05.277Z,6.27
2023-01-01T20:59:35.808Z,8.57
2023-01-01T21:02:05.758Z,8.47
2023-01-01T21:04:38.721Z,9.33
2023-01-01T21:07:08.363Z,8.83
2023-01-01T21:09:35.515Z,15.13
2023-01-01T21:12:02.541Z,9.00
2023-01-01T21:14:29.423Z,5.33
2023-01-01T21:16:56.505Z,8.97
2023-01-01T21:19:27.036Z,6.00
2023-01-01T21:21:58.615Z,18.97
2023-01-01T21:24:28.570Z,5.30
2023-01-01T21:27:10.329Z,6.23
2023-01-01T21:29:40.852Z,6.83
2023-01-01T21:32:20.526Z,6.00
2023-01-01T21:34:50.477Z,7.90
2023-01-01T21:37:52.871Z,18.50
2023-01-01T21:40:31.168Z,5.63
2023-01-01T21:43:37.379Z,5.43
2023-01-01T21:46:07.289Z,8.17
2023-01-01T21:48:56.126Z,10.90
2023-01-01T21:51:32.262Z,6.50
2023-01-01T21:54:18.216Z,6.50
2023-01-01T21:57:01.991Z,5.20
2023-01-01T21:59:41.860Z,4.63
2023-01-01T22:02:34.096Z,9.70
2023-01-01T22:05:16.363Z,8.40
2023-01-01T22:08:01.305Z,9.03
2023-01-01T22:10:37.258Z,8.17
2023-01-01T22:13:14.784Z,6.23
2023-01-01T22:15:44.943Z,5.30
2023-01-01T22:18:28.140Z,6.80
2023-01-01T22:20:56.331Z,7.70
2023-01-01T22:23:27.644Z,9.73
2023-01-01T22:25:54.421Z,13.10
2023-01-01T22:28:25.480Z,8.87
2023-01-01T22:31:00.415Z,8.33
2023-01-01T22:33:44.136Z,8.90
2023-01-01T22:36:18.193Z,6.27
2023-01-01T22:38:45.675Z,6.33
2023-01-01T22:41:13.535Z,6.80
2023-01-01T22:43:43.652Z,6.03
2023-01-01T22:46:33.631Z,7.50
2023-01-01T22:49:10.512Z,10.53
2023-01-01T22:51:44.739Z,6.50
2023-01-01T22:54:11.466Z,7.73
2023-01-01T22:56:38.248Z,7.10
2023-01-01T22:59:05.146Z,5.90
2023-01-01T23:01:31.999Z,12.20
2023-01-01T23:03:59.003Z,5.43
2023-01-01T23:06:26.096Z,6.10
2023-01-01T23:08:53.676Z,7.10
2023-01-01T23:11:21.127Z,10.20
2023-01-01T23:14:08.484Z,4.83
2023-01-01T23:16:36.105Z,11.50
2023-01-01T23:19:03.653Z,9.00
2023-01-01T23:21:32.495Z,6.50
2023-01-01T23:24:01.496Z,9.07
2023-01-01T23:26:28.571Z,5.33
2023-01-01T23:28:55.971Z,6.20
2023-01-01T23:31:25.752Z,13.30
2023-01-01T23:33:54.933Z,8.13
2023-01-01T23:36:23.041Z,3.60
2023-01-01T23:38:50.047Z,5.00
2023-01-01T23:41:16.803Z,10.27
2023-01-01T23:43:44.209Z,4.30
2023-01-01T23:46:13.416Z,7.13
2023-01-01T23:48:42.011Z,5.73
2023-01-01T23:51:09.730Z,5.17
2023-01-01T23:53:36.472Z,5.30
2023-01-01T23:56:03.343Z,10.00
2023-01-01T23:58:30.029Z,5.33
